首页
METAR-TAF:

METAR-TAF

机场 :

山口宇部機場

宇部, 日本

纬度: 33-57N, 经度: 131-15E, 海拔: 5米

当前天气观测

该预报发布于50分钟前的10:00 UTC
风速10节,风向东转东北
温度 28°C
湿度 94%
气压 1009 hPa
能见度10公里或以上
少量云层高于800英尺
散云层高于2500英尺
少量云层高于3000英尺, 积雨云.
多云
雷暴

METAR: RJDC 221000Z 07010KT 9999 TS FEW008 SCT025 FEW030CB BKN/// 28/27 Q1009

时间: 19:50 (10:50 UTC)


TAF: 丢失

超过4000个机场的气象观测和天气预报(METAR&TAF报告)。

可查询的气象台以黄色和红色小点在地图上表示。

将鼠标移到小点上方,可查看气象台名称。

然后点击查看天气观测和预报。

如需切换地图:点击带黑十字的绿色按钮放大地图;点击带横线的绿色按钮缩小地图;或者点击绿色箭头查看邻近地区的地图。


METAR-TAF: